El Ejido, Spain
Current Conditions -  °F | °C
As of 5:30 AM on Friday 31 Oct 2014 (Local Time) from LEAM Reporting Station
Clear Clear  
Wind Chill: 64°   Ceiling: Unl
Heat Index: 64°   Visibility: 6mi
Dew Point: 52°   Wind: 10mph
Humidity: 64%   Direction: 340°NNW
Pressure: 30.15"   Gusts: NA
Location:  36.78°N, 2.81°W
Report Text: LEAM 310430Z 34009KT 310V020 CAVOK 18/11 Q1021
Loading
Personal Weather Stations






























Interactive Weather Map
Tropical Storm Tracking
New forecast layout! Learn more

10-Day Weather Forecast

Advertisements
Track Severe Weather on mobile